Lakeville, Ohio
Current Conditions -  °F | °C
As of 12:15 AM on Sunday 21 Dec 2014 (Local Time) from KBJJ Reporting Station
Haze Haze  
Wind Chill: 27°   Ceiling: 9000
Heat Index: 27°   Visibility: 6mi
Dew Point: 23°   Wind: 0mph
Humidity: 85%   Direction: NA
Pressure: 30.26"   Gusts: NA
Location:  40.66°N, 82.13°W
Report Text: KBJJ 210515Z AUTO 00000KT 6SM BR SCT024 BKN090 M03/M05 A3026 RMK AO2 T10281050 TSNO
Loading
Personal Weather Stations






























Interactive Weather Map New forecast layout! Learn more

10-Day Weather Forecast

Advertisements
Track Severe Weather on mobile